createdAt,value
2022-12-25T00:01:56.700Z,89.83
2022-12-25T00:04:24.618Z,89.82
2022-12-25T00:06:52.126Z,89.88
2022-12-25T00:09:19.659Z,89.97
2022-12-25T00:11:47.468Z,89.97
2022-12-25T00:14:14.915Z,90.17
2022-12-25T00:16:42.593Z,89.41
2022-12-25T00:19:10.534Z,91.00
2022-12-25T00:21:38.021Z,90.21
2022-12-25T00:24:05.829Z,89.48
2022-12-25T00:26:33.655Z,89.29
2022-12-25T00:29:01.170Z,90.92
2022-12-25T00:31:28.949Z,90.52
2022-12-25T00:33:56.865Z,90.61
2022-12-25T00:36:24.726Z,90.44
2022-12-25T00:38:52.328Z,90.78
2022-12-25T00:41:43.182Z,91.29
2022-12-25T00:44:13.546Z,91.54
2022-12-25T00:46:42.577Z,91.07
2022-12-25T00:49:11.642Z,91.32
2022-12-25T00:51:39.261Z,91.15
2022-12-25T00:54:07.550Z,90.38
2022-12-25T00:56:35.580Z,90.36
2022-12-25T00:59:03.424Z,91.82
2022-12-25T01:01:32.233Z,91.58
2022-12-25T01:04:00.584Z,90.68
2022-12-25T01:06:29.065Z,90.65
2022-12-25T01:09:15.817Z,90.96
2022-12-25T01:11:43.859Z,90.91
2022-12-25T01:14:11.788Z,90.95
2022-12-25T01:16:39.917Z,91.69
2022-12-25T01:19:07.756Z,91.10
2022-12-25T01:21:35.672Z,90.75
2022-12-25T01:24:03.291Z,90.53
2022-12-25T01:26:30.768Z,90.46
2022-12-25T01:28:58.585Z,90.65
2022-12-25T01:31:26.176Z,90.63
2022-12-25T01:33:53.972Z,91.12
2022-12-25T01:36:24.445Z,91.10
2022-12-25T01:38:53.654Z,91.17
2022-12-25T01:41:23.322Z,90.98
2022-12-25T01:44:02.629Z,90.83
2022-12-25T01:46:31.472Z,90.75
2022-12-25T01:49:08.343Z,92.09
2022-12-25T01:51:59.033Z,91.77
2022-12-25T01:54:34.281Z,90.86
2022-12-25T01:57:06.824Z,90.88
2022-12-25T01:59:34.816Z,91.42
2022-12-25T02:02:04.082Z,91.42
2022-12-25T02:04:39.329Z,91.54
2022-12-25T02:07:09.823Z,92.02
2022-12-25T02:09:37.958Z,91.50
2022-12-25T02:12:06.673Z,90.31
2022-12-25T02:14:37.177Z,90.54
2022-12-25T02:17:18.935Z,91.49
2022-12-25T02:19:52.850Z,91.39
2022-12-25T02:22:39.394Z,92.09
2022-12-25T02:25:43.345Z,92.12
2022-12-25T02:28:21.763Z,91.51
2022-12-25T02:31:08.081Z,90.69
2022-12-25T02:34:00.212Z,90.96
2022-12-25T02:36:52.665Z,90.97
2022-12-25T02:39:51.702Z,91.03
2022-12-25T02:43:07.682Z,92.25
2022-12-25T02:46:05.350Z,91.67
2022-12-25T02:48:56.220Z,91.46
2022-12-25T02:51:45.958Z,91.51
2022-12-25T02:54:37.693Z,91.28
2022-12-25T02:57:27.639Z,91.35
2022-12-25T03:00:18.176Z,91.27
2022-12-25T03:03:06.656Z,90.88
2022-12-25T03:05:58.389Z,90.81
2022-12-25T03:08:31.671Z,90.54
2022-12-25T03:11:23.374Z,91.13
2022-12-25T03:13:55.197Z,91.05
2022-12-25T03:16:41.795Z,91.04
2022-12-25T03:19:29.961Z,90.99
2022-12-25T03:22:16.791Z,91.01
2022-12-25T03:25:03.310Z,90.89
2022-12-25T03:27:33.560Z,90.69
2022-12-25T03:30:20.498Z,90.49
2022-12-25T03:33:43.303Z,90.40
2022-12-25T03:36:17.965Z,90.20
2022-12-25T03:39:19.232Z,90.43
2022-12-25T03:42:11.113Z,90.28
2022-12-25T03:45:24.637Z,89.85
2022-12-25T03:48:12.739Z,89.42
2022-12-25T03:51:12.629Z,89.51
2022-12-25T03:54:03.837Z,90.09
2022-12-25T03:56:51.828Z,90.40
2022-12-25T03:59:40.743Z,90.47
2022-12-25T04:02:26.985Z,90.33
2022-12-25T04:05:13.306Z,90.84
2022-12-25T04:07:59.498Z,90.81
2022-12-25T04:10:46.300Z,90.65
2022-12-25T04:13:32.376Z,90.83
2022-12-25T04:16:18.724Z,90.70
2022-12-25T04:19:05.189Z,90.85
2022-12-25T04:21:51.524Z,90.79
2022-12-25T04:24:37.599Z,90.70
2022-12-25T04:27:24.334Z,90.45
2022-12-25T04:30:10.362Z,90.36
2022-12-25T04:32:56.628Z,90.18
2022-12-25T04:35:42.957Z,90.15
2022-12-25T04:38:10.818Z,90.14
2022-12-25T04:40:38.373Z,90.06
2022-12-25T04:43:05.944Z,89.32
2022-12-25T04:45:33.862Z,89.37
2022-12-25T04:48:01.389Z,89.77
2022-12-25T04:50:28.856Z,89.68
2022-12-25T04:52:56.688Z,89.44
2022-12-25T04:55:24.183Z,89.36
2022-12-25T04:57:51.636Z,89.33
2022-12-25T05:00:19.733Z,89.36
2022-12-25T05:02:47.339Z,89.22
2022-12-25T05:05:14.953Z,88.96
2022-12-25T05:07:42.832Z,88.70
2022-12-25T05:10:10.747Z,88.38
2022-12-25T05:12:38.272Z,88.57
2022-12-25T05:15:06.522Z,88.76
2022-12-25T05:17:34.425Z,88.93
2022-12-25T05:20:01.981Z,89.19
2022-12-25T05:22:29.776Z,89.24
2022-12-25T05:24:57.418Z,89.37
2022-12-25T05:27:25.110Z,89.51
2022-12-25T05:29:52.980Z,89.38
2022-12-25T05:32:20.497Z,89.58
2022-12-25T05:34:48.048Z,89.76
2022-12-25T05:37:16.031Z,89.87
2022-12-25T05:39:43.565Z,89.83
2022-12-25T05:42:11.044Z,90.05
2022-12-25T05:44:38.874Z,89.88
2022-12-25T05:47:06.381Z,89.66
2022-12-25T05:49:33.987Z,89.64
2022-12-25T05:52:01.806Z,89.61
2022-12-25T05:54:29.327Z,89.89
2022-12-25T05:56:56.824Z,90.00
2022-12-25T05:59:24.608Z,90.09
2022-12-25T06:01:52.239Z,90.84
2022-12-25T06:04:20.150Z,90.65
2022-12-25T06:06:47.691Z,90.04
2022-12-25T06:09:15.312Z,89.65
2022-12-25T06:11:43.201Z,89.64
2022-12-25T06:14:14.771Z,89.81
2022-12-25T06:16:42.642Z,89.88
2022-12-25T06:19:10.529Z,89.48
2022-12-25T06:21:38.103Z,89.13
2022-12-25T06:24:05.916Z,89.45
2022-12-25T06:26:33.835Z,89.22
2022-12-25T06:29:01.302Z,89.01
2022-12-25T06:31:28.993Z,89.02
2022-12-25T06:33:56.883Z,88.97
2022-12-25T06:36:27.149Z,88.90
2022-12-25T06:38:55.160Z,88.99
2022-12-25T06:41:25.992Z,89.20
2022-12-25T06:43:55.983Z,89.25
2022-12-25T06:46:26.035Z,89.05
2022-12-25T06:48:53.868Z,88.95
2022-12-25T06:51:27.243Z,88.72
2022-12-25T06:53:55.309Z,88.53
2022-12-25T06:56:26.973Z,88.55
2022-12-25T06:59:00.130Z,88.37
2022-12-25T07:01:34.368Z,88.08
2022-12-25T07:04:05.606Z,87.68
2022-12-25T07:06:34.411Z,87.26
2022-12-25T07:09:02.242Z,86.69
2022-12-25T07:11:29.752Z,86.69
2022-12-25T07:13:57.287Z,87.11
2022-12-25T07:16:25.107Z,87.46
2022-12-25T07:18:52.594Z,87.64
2022-12-25T07:21:21.599Z,87.84
2022-12-25T07:23:50.303Z,88.00
2022-12-25T07:26:18.197Z,88.22
2022-12-25T07:28:45.766Z,88.34
2022-12-25T07:31:16.332Z,88.44
2022-12-25T07:33:44.773Z,88.72
2022-12-25T07:36:13.444Z,87.90
2022-12-25T07:38:42.530Z,88.29
2022-12-25T07:41:11.818Z,89.04
2022-12-25T07:43:39.289Z,89.27
2022-12-25T07:46:07.331Z,88.91
2022-12-25T07:48:36.169Z,88.90
2022-12-25T07:51:06.599Z,87.62
2022-12-25T07:53:37.464Z,87.31
2022-12-25T07:56:20.425Z,87.23
2022-12-25T07:58:48.769Z,87.30
2022-12-25T08:01:22.155Z,86.99
2022-12-25T08:03:58.369Z,87.61
2022-12-25T08:06:30.038Z,87.88
2022-12-25T08:09:04.561Z,88.18
2022-12-25T08:11:33.628Z,89.15
2022-12-25T08:14:01.522Z,89.29
2022-12-25T08:16:29.219Z,89.29
2022-12-25T08:18:56.755Z,89.33
2022-12-25T08:21:24.528Z,88.82
2022-12-25T08:23:52.111Z,88.58
2022-12-25T08:26:21.729Z,86.63
2022-12-25T08:28:50.482Z,85.34
2022-12-25T08:31:22.217Z,85.45
2022-12-25T08:33:52.891Z,86.15
2022-12-25T08:36:21.322Z,87.25
2022-12-25T08:38:49.228Z,87.62
2022-12-25T08:41:17.603Z,87.68
2022-12-25T08:43:45.238Z,87.75
2022-12-25T08:46:13.068Z,87.45
2022-12-25T08:48:45.649Z,87.22
2022-12-25T08:51:16.510Z,85.85
2022-12-25T08:53:46.270Z,84.23
2022-12-25T08:56:14.853Z,83.50
2022-12-25T08:58:43.048Z,83.25
2022-12-25T09:01:11.767Z,83.98
2022-12-25T09:03:39.847Z,84.18
2022-12-25T09:06:14.506Z,84.11
2022-12-25T09:08:48.735Z,83.62
2022-12-25T09:11:19.525Z,83.63
2022-12-25T09:13:48.561Z,82.82
2022-12-25T09:16:20.390Z,81.50
2022-12-25T09:18:49.079Z,81.04
2022-12-25T09:21:17.423Z,81.34
2022-12-25T09:23:45.501Z,81.83
2022-12-25T09:26:15.932Z,83.09
2022-12-25T09:28:50.718Z,82.94
2022-12-25T09:31:22.112Z,80.98
2022-12-25T09:33:50.770Z,80.20
2022-12-25T09:36:18.360Z,80.10
2022-12-25T09:38:46.205Z,79.47
2022-12-25T09:41:21.409Z,79.48
2022-12-25T09:43:53.879Z,79.10
2022-12-25T09:46:26.459Z,78.41
2022-12-25T09:49:18.507Z,78.50
2022-12-25T09:51:52.623Z,77.49
2022-12-25T09:54:38.964Z,76.40
2022-12-25T09:57:11.799Z,76.35
2022-12-25T09:59:42.102Z,75.98
2022-12-25T10:02:36.282Z,75.19
2022-12-25T10:05:31.287Z,74.48
2022-12-25T10:08:13.788Z,74.37
2022-12-25T10:11:01.717Z,74.79
2022-12-25T10:13:32.161Z,75.07
2022-12-25T10:16:23.061Z,74.96
2022-12-25T10:19:19.051Z,74.68
2022-12-25T10:21:48.683Z,75.22
2022-12-25T10:24:25.148Z,74.56
2022-12-25T10:26:56.456Z,74.74
2022-12-25T10:29:24.106Z,74.42
2022-12-25T10:31:54.963Z,73.70
2022-12-25T10:34:23.612Z,73.62
2022-12-25T10:36:51.294Z,73.65
2022-12-25T10:39:27.860Z,73.89
2022-12-25T10:42:28.517Z,74.35
2022-12-25T10:45:00.685Z,74.24
2022-12-25T10:47:31.785Z,74.36
2022-12-25T10:50:01.304Z,74.33
2022-12-25T10:52:29.697Z,73.63
2022-12-25T10:54:57.228Z,73.81
2022-12-25T10:57:26.124Z,73.86
2022-12-25T10:59:57.234Z,73.90
2022-12-25T11:02:36.322Z,73.06
2022-12-25T11:05:29.206Z,73.48
2022-12-25T11:08:00.231Z,72.34
2022-12-25T11:10:35.063Z,71.90
2022-12-25T11:13:07.558Z,72.67
2022-12-25T11:15:37.780Z,71.61
2022-12-25T11:18:24.914Z,71.56
2022-12-25T11:21:00.771Z,72.15
2022-12-25T11:23:31.027Z,71.78
2022-12-25T11:26:02.991Z,69.99
2022-12-25T11:28:32.861Z,70.88
2022-12-25T11:31:10.496Z,71.94
2022-12-25T11:33:47.091Z,71.92
2022-12-25T11:36:35.445Z,72.45
2022-12-25T11:39:27.897Z,72.09
2022-12-25T11:42:34.853Z,72.01
2022-12-25T11:45:27.203Z,70.72
2022-12-25T11:48:01.004Z,71.72
2022-12-25T11:50:36.590Z,71.12
2022-12-25T11:53:20.415Z,70.84
2022-12-25T11:55:57.244Z,71.62
2022-12-25T11:58:46.667Z,71.57
2022-12-25T12:01:54.795Z,71.04
2022-12-25T12:04:36.874Z,71.15
2022-12-25T12:07:30.441Z,71.10
2022-12-25T12:10:00.915Z,70.90
2022-12-25T12:12:48.907Z,70.78
2022-12-25T12:15:29.348Z,70.93
2022-12-25T12:18:19.927Z,71.17
2022-12-25T12:21:08.194Z,70.79
2022-12-25T12:24:05.485Z,71.32
2022-12-25T12:26:38.247Z,71.51
2022-12-25T12:29:08.396Z,71.59
2022-12-25T12:31:42.878Z,70.78
2022-12-25T12:34:34.500Z,71.13
2022-12-25T12:37:06.726Z,70.84
2022-12-25T12:39:38.322Z,70.51
2022-12-25T12:42:20.089Z,70.72
2022-12-25T12:44:49.878Z,70.83
2022-12-25T12:47:37.117Z,70.45
2022-12-25T12:50:06.545Z,70.27
2022-12-25T12:52:41.044Z,69.90
2022-12-25T12:55:13.218Z,69.64
2022-12-25T12:57:42.966Z,69.64
2022-12-25T13:00:19.774Z,69.35
2022-12-25T13:03:34.832Z,69.12
2022-12-25T13:06:21.040Z,68.67
2022-12-25T13:08:51.507Z,69.34
2022-12-25T13:11:28.161Z,69.83
2022-12-25T13:14:00.673Z,70.99
2022-12-25T13:16:40.359Z,70.98
2022-12-25T13:19:14.381Z,71.11
2022-12-25T13:22:02.207Z,71.27
2022-12-25T13:24:32.595Z,71.99
2022-12-25T13:27:00.686Z,73.17
2022-12-25T13:29:35.231Z,73.37
2022-12-25T13:32:06.375Z,74.58
2022-12-25T13:34:42.707Z,74.83
2022-12-25T13:37:15.173Z,75.74
2022-12-25T13:40:14.953Z,76.08
2022-12-25T13:42:47.420Z,75.68
2022-12-25T13:45:28.822Z,75.67
2022-12-25T13:47:57.428Z,75.71
2022-12-25T13:50:34.004Z,76.26
2022-12-25T13:53:13.069Z,76.41
2022-12-25T13:55:42.544Z,76.56
2022-12-25T13:58:22.830Z,76.22
2022-12-25T14:00:55.472Z,76.40
2022-12-25T14:03:30.890Z,75.70
2022-12-25T14:06:01.419Z,76.03
2022-12-25T14:08:32.574Z,75.56
2022-12-25T14:11:05.877Z,75.98
2022-12-25T14:13:40.362Z,76.01
2022-12-25T14:16:09.189Z,76.36
2022-12-25T14:18:37.629Z,76.50
2022-12-25T14:21:22.279Z,76.74
2022-12-25T14:23:51.021Z,77.13
2022-12-25T14:26:23.520Z,77.18
2022-12-25T14:28:52.967Z,77.20
2022-12-25T14:31:21.897Z,77.17
2022-12-25T14:33:51.633Z,77.04
2022-12-25T14:36:19.683Z,76.95
2022-12-25T14:38:57.991Z,76.66
2022-12-25T14:41:33.951Z,76.57
2022-12-25T14:44:03.844Z,76.65
2022-12-25T14:46:33.213Z,76.70
2022-12-25T14:49:21.188Z,76.85
2022-12-25T14:51:49.068Z,77.08
2022-12-25T14:54:21.340Z,77.03
2022-12-25T14:56:51.710Z,77.01
2022-12-25T14:59:21.572Z,77.13
2022-12-25T15:01:58.809Z,77.14
2022-12-25T15:04:27.451Z,77.30
2022-12-25T15:07:10.879Z,77.48
2022-12-25T15:09:40.287Z,77.76
2022-12-25T15:12:08.341Z,77.94
2022-12-25T15:14:38.508Z,78.12
2022-12-25T15:17:06.167Z,78.02
2022-12-25T15:19:38.819Z,78.45
2022-12-25T15:22:07.096Z,78.63
2022-12-25T15:24:35.040Z,78.72
2022-12-25T15:27:02.625Z,78.78
2022-12-25T15:30:07.685Z,78.83
2022-12-25T15:32:21.856Z,78.96
2022-12-25T15:34:50.312Z,78.97
2022-12-25T15:37:19.022Z,79.01
2022-12-25T15:39:46.819Z,78.86
2022-12-25T15:42:17.078Z,78.80
2022-12-25T15:44:45.508Z,78.78
2022-12-25T15:47:15.101Z,78.92
2022-12-25T15:49:43.812Z,79.17
2022-12-25T15:52:14.350Z,79.24
2022-12-25T15:54:42.041Z,79.02
2022-12-25T15:57:22.296Z,79.13
2022-12-25T15:59:50.185Z,79.72
2022-12-25T16:02:20.576Z,79.98
2022-12-25T16:04:51.149Z,79.80
2022-12-25T16:07:20.792Z,78.58
2022-12-25T16:09:49.172Z,78.81
2022-12-25T16:12:16.858Z,78.24
2022-12-25T16:14:44.415Z,79.57
2022-12-25T16:17:15.577Z,80.19
2022-12-25T16:19:44.894Z,80.94
2022-12-25T16:22:14.887Z,81.21
2022-12-25T16:24:42.787Z,81.40
2022-12-25T16:27:10.367Z,81.38
2022-12-25T16:32:05.871Z,81.52
2022-12-25T16:34:33.352Z,81.98
2022-12-25T16:37:01.191Z,82.11
2022-12-25T16:39:28.935Z,82.24
2022-12-25T16:41:56.515Z,82.43
2022-12-25T16:44:24.360Z,82.50
2022-12-25T16:46:51.985Z,82.42
2022-12-25T16:49:19.536Z,82.42
2022-12-25T16:51:47.390Z,82.77
2022-12-25T16:54:15.067Z,82.90
2022-12-25T16:56:42.563Z,82.83
2022-12-25T16:59:10.489Z,82.48
2022-12-25T17:01:43.150Z,82.38
2022-12-25T17:04:11.391Z,82.39
2022-12-25T17:06:38.978Z,82.23
2022-12-25T17:09:07.639Z,82.31
2022-12-25T17:11:35.491Z,82.50
2022-12-25T17:14:04.755Z,82.34
2022-12-25T17:16:36.841Z,82.32
2022-12-25T17:19:09.797Z,82.10
2022-12-25T17:21:38.458Z,82.79
2022-12-25T17:24:07.120Z,83.12
2022-12-25T17:26:34.883Z,82.81
2022-12-25T17:29:02.790Z,82.56
2022-12-25T17:31:30.782Z,82.66
2022-12-25T17:34:00.920Z,83.29
2022-12-25T17:36:28.926Z,83.33
2022-12-25T17:38:58.945Z,83.63
2022-12-25T17:41:26.732Z,83.58
2022-12-25T17:43:54.307Z,83.39
2022-12-25T17:46:26.239Z,83.06
2022-12-25T17:48:56.502Z,83.07
2022-12-25T17:51:26.604Z,82.95
2022-12-25T17:53:57.167Z,82.86
2022-12-25T17:56:25.731Z,82.45
2022-12-25T17:58:55.824Z,82.16
2022-12-25T18:01:25.405Z,82.00
2022-12-25T18:03:53.792Z,82.00
2022-12-25T18:06:25.645Z,82.13
2022-12-25T18:08:55.424Z,81.88
2022-12-25T18:11:27.705Z,82.18
2022-12-25T18:13:58.014Z,82.72
2022-12-25T18:16:27.242Z,82.84
2022-12-25T18:18:55.187Z,82.89
2022-12-25T18:21:23.116Z,83.37
2022-12-25T18:23:51.173Z,83.08
2022-12-25T18:26:20.269Z,82.92
2022-12-25T18:28:49.228Z,82.55
2022-12-25T18:31:24.605Z,82.58
2022-12-25T18:33:53.272Z,82.32
2022-12-25T18:36:23.777Z,82.41
2022-12-25T18:38:53.208Z,82.22
2022-12-25T18:41:22.223Z,82.56
2022-12-25T18:43:53.736Z,82.56
2022-12-25T18:46:27.457Z,82.37
2022-12-25T18:48:57.417Z,82.20
2022-12-25T18:51:27.696Z,82.19
2022-12-25T18:54:01.650Z,82.50
2022-12-25T18:56:29.625Z,82.63
2022-12-25T18:58:59.751Z,82.32
2022-12-25T19:01:27.374Z,82.38
2022-12-25T19:04:02.143Z,82.68
2022-12-25T19:06:33.472Z,83.03
2022-12-25T19:09:09.451Z,83.73
2022-12-25T19:11:46.115Z,83.81
2022-12-25T19:14:15.660Z,83.64
2022-12-25T19:16:43.378Z,83.60
2022-12-25T19:19:10.975Z,83.62
2022-12-25T19:21:38.907Z,87.43
2022-12-25T19:24:06.803Z,84.03
2022-12-25T19:26:36.005Z,88.17
2022-12-25T19:29:03.927Z,89.87
2022-12-25T19:31:31.558Z,80.81
2022-12-25T19:33:59.235Z,80.08
2022-12-25T19:36:27.081Z,80.50
2022-12-25T19:38:54.684Z,81.96
2022-12-25T19:41:22.289Z,84.59
2022-12-25T19:43:50.665Z,83.24
2022-12-25T19:46:25.039Z,84.84
2022-12-25T19:48:53.701Z,84.76
2022-12-25T19:51:24.545Z,82.10
2022-12-25T19:53:52.972Z,81.90
2022-12-25T19:56:20.883Z,83.52
2022-12-25T19:58:48.457Z,83.85
2022-12-25T20:01:18.953Z,82.96
2022-12-25T20:03:48.248Z,84.55
2022-12-25T20:06:24.803Z,82.18
2022-12-25T20:08:59.146Z,82.95
2022-12-25T20:11:29.521Z,83.14
2022-12-25T20:13:57.533Z,83.06
2022-12-25T20:16:25.893Z,83.24
2022-12-25T20:18:53.921Z,85.19
2022-12-25T20:21:23.601Z,84.17
2022-12-25T20:23:52.911Z,83.85
2022-12-25T20:26:22.950Z,85.49
2022-12-25T20:28:51.654Z,83.17
2022-12-25T20:31:31.002Z,85.74
2022-12-25T20:34:04.068Z,83.34
2022-12-25T20:36:36.753Z,84.74
2022-12-25T20:39:12.569Z,83.41
2022-12-25T20:41:40.960Z,82.76
2022-12-25T20:44:10.118Z,82.50
2022-12-25T20:46:38.221Z,82.48
2022-12-25T20:49:06.046Z,83.07
2022-12-25T20:51:34.201Z,83.57
2022-12-25T20:54:06.505Z,84.10
2022-12-25T20:56:35.223Z,84.42
2022-12-25T20:59:02.971Z,84.62
2022-12-25T21:01:31.872Z,84.87
2022-12-25T21:03:59.998Z,85.26
2022-12-25T21:06:27.718Z,85.56
2022-12-25T21:08:56.317Z,85.79
2022-12-25T21:11:24.322Z,85.81
2022-12-25T21:13:52.139Z,85.88
2022-12-25T21:16:22.366Z,85.90
2022-12-25T21:18:53.107Z,86.15
2022-12-25T21:21:21.812Z,86.32
2022-12-25T21:23:49.421Z,86.41
2022-12-25T21:26:25.883Z,86.26
2022-12-25T21:28:56.212Z,86.23
2022-12-25T21:31:24.767Z,86.31
2022-12-25T21:33:53.985Z,86.09
2022-12-25T21:36:30.285Z,86.04
2022-12-25T21:39:08.085Z,86.03
2022-12-25T21:41:38.125Z,85.95
2022-12-25T21:44:06.988Z,85.90
2022-12-25T21:46:34.865Z,85.83
2022-12-25T21:49:02.456Z,85.90
2022-12-25T21:51:51.293Z,86.23
2022-12-25T21:54:20.958Z,85.91
2022-12-25T21:56:49.555Z,85.86
2022-12-25T21:59:20.593Z,85.85
2022-12-25T22:01:49.674Z,85.83
2022-12-25T22:04:19.720Z,85.83
2022-12-25T22:07:06.239Z,85.80
2022-12-25T22:09:34.450Z,85.76
2022-12-25T22:12:21.005Z,85.66
2022-12-25T22:14:58.821Z,85.60
2022-12-25T22:17:47.529Z,85.82
2022-12-25T22:20:25.986Z,85.83
2022-12-25T22:22:53.887Z,85.55
2022-12-25T22:25:22.436Z,85.47
2022-12-25T22:27:50.830Z,85.42
2022-12-25T22:30:23.959Z,85.25
2022-12-25T22:32:52.366Z,85.21
2022-12-25T22:35:20.883Z,85.34
2022-12-25T22:37:49.629Z,85.41
2022-12-25T22:40:19.327Z,85.35
2022-12-25T22:42:47.170Z,85.45
2022-12-25T22:45:14.948Z,85.37
2022-12-25T22:47:42.893Z,85.16
2022-12-25T22:50:12.033Z,85.57
2022-12-25T22:52:40.604Z,85.54
2022-12-25T22:55:09.712Z,85.36
2022-12-25T22:57:37.338Z,85.71
2022-12-25T23:00:08.892Z,85.80
2022-12-25T23:02:37.250Z,86.00
2022-12-25T23:05:05.229Z,85.92
2022-12-25T23:07:32.750Z,86.00
2022-12-25T23:10:00.565Z,85.97
2022-12-25T23:12:46.947Z,85.88
2022-12-25T23:15:14.757Z,86.22
2022-12-25T23:18:00.975Z,86.45
2022-12-25T23:20:47.386Z,86.82
2022-12-25T23:23:35.051Z,86.80
2022-12-25T23:26:09.088Z,86.87
2022-12-25T23:28:57.180Z,86.91
2022-12-25T23:31:34.592Z,86.96
2022-12-25T23:34:02.457Z,86.93
2022-12-25T23:36:30.816Z,87.31
2022-12-25T23:39:01.740Z,87.22
2022-12-25T23:41:34.777Z,87.21
2022-12-25T23:44:02.311Z,87.67
2022-12-25T23:46:30.100Z,87.76
2022-12-25T23:48:57.972Z,85.85
2022-12-25T23:51:25.524Z,84.90
2022-12-25T23:53:53.149Z,83.98
2022-12-25T23:56:21.002Z,84.03
2022-12-25T23:58:54.273Z,83.88
